createdAt,value
2024-05-09T00:01:37.124Z,56.05
2024-05-09T00:04:08.368Z,56.26
2024-05-09T00:06:40.539Z,56.34
2024-05-09T00:09:15.049Z,56.42
2024-05-09T00:11:48.104Z,57.08
2024-05-09T00:14:20.358Z,57.06
2024-05-09T00:16:53.938Z,57.43
2024-05-09T00:19:27.572Z,57.50
2024-05-09T00:21:59.544Z,56.98
2024-05-09T00:24:32.676Z,57.01
2024-05-09T00:27:05.235Z,56.65
2024-05-09T00:29:38.004Z,57.84
2024-05-09T00:32:11.098Z,57.96
2024-05-09T00:34:44.996Z,56.79
2024-05-09T00:37:18.114Z,57.92
2024-05-09T00:39:50.261Z,57.93
2024-05-09T00:42:25.807Z,57.65
2024-05-09T00:44:58.214Z,57.40
2024-05-09T00:47:30.934Z,56.61
2024-05-09T00:50:09.788Z,57.12
2024-05-09T00:52:44.762Z,57.20
2024-05-09T00:55:18.402Z,58.43
2024-05-09T00:57:53.334Z,57.03
2024-05-09T01:00:32.097Z,56.90
2024-05-09T01:03:13.236Z,57.90
2024-05-09T01:05:46.867Z,58.25
2024-05-09T01:08:19.774Z,59.39
2024-05-09T01:10:53.754Z,58.00
2024-05-09T01:13:26.525Z,58.11
2024-05-09T01:15:59.447Z,58.70
2024-05-09T01:18:32.490Z,58.46
2024-05-09T01:21:08.220Z,60.15
2024-05-09T01:23:40.588Z,59.06
2024-05-09T01:26:14.373Z,59.48
2024-05-09T01:28:46.932Z,58.99
2024-05-09T01:31:19.362Z,58.70
2024-05-09T01:33:52.067Z,58.86
2024-05-09T01:36:25.142Z,59.85
2024-05-09T01:38:57.958Z,60.82
2024-05-09T01:41:30.532Z,60.68
2024-05-09T01:44:03.990Z,60.54
2024-05-09T01:46:39.175Z,59.98
2024-05-09T01:49:11.853Z,59.38
2024-05-09T01:51:47.233Z,58.51
2024-05-09T01:54:19.456Z,60.84
2024-05-09T01:56:52.564Z,60.11
2024-05-09T01:59:27.055Z,60.30
2024-05-09T02:01:59.656Z,59.49
2024-05-09T02:04:32.812Z,59.37
2024-05-09T02:07:06.972Z,58.41
2024-05-09T02:09:39.121Z,59.20
2024-05-09T02:12:12.978Z,59.85
2024-05-09T02:14:48.852Z,60.37
2024-05-09T02:17:21.437Z,59.65
2024-05-09T02:19:54.972Z,59.39
2024-05-09T02:22:28.676Z,59.15
2024-05-09T02:25:01.094Z,59.13
2024-05-09T02:27:34.083Z,59.02
2024-05-09T02:30:18.371Z,59.16
2024-05-09T02:32:59.063Z,59.08
2024-05-09T02:35:32.617Z,59.77
2024-05-09T02:38:05.857Z,59.03
2024-05-09T02:40:39.706Z,58.62
2024-05-09T02:43:14.863Z,59.32
2024-05-09T02:45:47.283Z,59.89
2024-05-09T02:48:19.296Z,59.92
2024-05-09T02:50:53.450Z,60.22
2024-05-09T02:53:26.840Z,60.94
2024-05-09T02:55:58.837Z,60.41
2024-05-09T02:58:30.806Z,60.74
2024-05-09T03:01:05.121Z,61.54
2024-05-09T03:03:40.180Z,61.55
2024-05-09T03:06:14.584Z,61.55
2024-05-09T03:08:49.229Z,61.56
2024-05-09T03:11:25.660Z,61.55
2024-05-09T03:13:59.274Z,61.16
2024-05-09T03:16:32.560Z,61.60
2024-05-09T03:19:05.770Z,62.95
2024-05-09T03:21:42.622Z,62.05
2024-05-09T03:24:15.203Z,62.06
2024-05-09T03:26:52.591Z,61.94
2024-05-09T03:29:27.694Z,63.31
2024-05-09T03:31:59.602Z,63.37
2024-05-09T03:34:32.671Z,62.93
2024-05-09T03:37:05.596Z,62.20
2024-05-09T03:39:38.180Z,61.00
2024-05-09T03:42:10.208Z,60.81
2024-05-09T03:44:44.708Z,62.26
2024-05-09T03:47:17.774Z,62.18
2024-05-09T03:49:50.295Z,62.10
2024-05-09T03:52:25.928Z,61.53
2024-05-09T03:54:58.698Z,61.03
2024-05-09T03:57:30.868Z,61.44
2024-05-09T04:00:07.364Z,61.66
2024-05-09T04:02:44.564Z,61.01
2024-05-09T04:05:18.052Z,60.76
2024-05-09T04:07:50.769Z,60.61
2024-05-09T04:10:30.904Z,61.04
2024-05-09T04:13:06.368Z,62.10
2024-05-09T04:15:38.896Z,60.91
2024-05-09T04:18:12.778Z,60.71
2024-05-09T04:20:45.513Z,60.54
2024-05-09T04:23:17.854Z,59.84
2024-05-09T04:25:50.597Z,59.98
2024-05-09T04:28:29.691Z,60.80
2024-05-09T04:31:03.679Z,60.31
2024-05-09T04:33:37.930Z,60.00
2024-05-09T04:36:10.993Z,59.16
2024-05-09T04:38:45.059Z,59.21
2024-05-09T04:41:18.412Z,59.36
2024-05-09T04:43:54.831Z,60.42
2024-05-09T04:46:27.868Z,60.51
2024-05-09T04:49:00.034Z,59.93
2024-05-09T04:51:34.707Z,59.07
2024-05-09T04:54:10.566Z,58.98
2024-05-09T04:56:43.861Z,59.75
2024-05-09T04:59:16.455Z,60.68
2024-05-09T05:01:49.111Z,59.46
2024-05-09T05:04:24.196Z,56.41
2024-05-09T05:06:55.168Z,52.35
2024-05-09T05:09:28.571Z,49.37
2024-05-09T05:12:03.605Z,48.37
2024-05-09T05:14:36.733Z,45.45
2024-05-09T05:17:09.171Z,44.58
2024-05-09T05:19:43.526Z,43.50
2024-05-09T05:22:16.338Z,42.99
2024-05-09T05:24:48.495Z,41.10
2024-05-09T05:27:22.177Z,41.39
2024-05-09T05:29:54.807Z,44.60
2024-05-09T05:32:39.138Z,43.23
2024-05-09T05:35:12.484Z,40.51
2024-05-09T05:37:45.843Z,37.57
2024-05-09T05:40:27.882Z,33.99
2024-05-09T05:43:09.574Z,34.06
2024-05-09T05:45:43.799Z,34.84
2024-05-09T05:48:17.941Z,32.03
2024-05-09T05:50:50.672Z,32.79
2024-05-09T05:53:24.099Z,33.05
2024-05-09T05:55:56.519Z,31.12
2024-05-09T05:58:28.600Z,32.42
2024-05-09T06:01:00.767Z,32.80
2024-05-09T06:03:38.493Z,33.44
2024-05-09T06:06:12.133Z,33.81
2024-05-09T06:08:45.361Z,32.47
2024-05-09T06:11:18.227Z,30.04
2024-05-09T06:13:50.760Z,27.40
2024-05-09T06:16:26.462Z,26.52
2024-05-09T06:18:59.599Z,25.25
2024-05-09T06:21:33.152Z,26.84
2024-05-09T06:24:08.507Z,25.44
2024-05-09T06:26:46.532Z,26.20
2024-05-09T06:29:19.438Z,24.06
2024-05-09T06:31:52.459Z,22.08
2024-05-09T06:34:25.159Z,21.16
2024-05-09T06:36:57.810Z,22.36
2024-05-09T06:39:30.520Z,18.69
2024-05-09T06:42:06.196Z,18.62
2024-05-09T06:44:38.824Z,18.42
2024-05-09T06:47:10.923Z,16.88
2024-05-09T06:49:44.119Z,17.47
2024-05-09T06:52:16.616Z,16.39
2024-05-09T06:54:48.761Z,15.50
2024-05-09T06:57:22.888Z,14.53
2024-05-09T07:00:00.041Z,14.81
2024-05-09T07:02:35.359Z,13.94
2024-05-09T07:05:08.801Z,14.68
2024-05-09T07:07:42.016Z,13.68
2024-05-09T07:10:21.644Z,13.70
2024-05-09T07:12:57.873Z,13.18
2024-05-09T07:15:30.222Z,12.16
2024-05-09T07:18:09.157Z,12.82
2024-05-09T07:20:43.166Z,13.23
2024-05-09T07:23:16.549Z,12.34
2024-05-09T07:25:49.066Z,12.22
2024-05-09T07:28:23.392Z,12.07
2024-05-09T07:30:56.139Z,11.60
2024-05-09T07:33:28.844Z,11.82
2024-05-09T07:36:01.314Z,11.97
2024-05-09T07:38:34.611Z,11.96
2024-05-09T07:41:08.937Z,11.20
2024-05-09T07:43:42.358Z,11.94
2024-05-09T07:54:07.457Z,10.90
2024-05-09T07:56:40.172Z,10.23
2024-05-09T07:59:15.684Z,11.30
2024-05-09T08:01:56.769Z,10.90
2024-05-09T08:04:30.140Z,10.62
2024-05-09T08:07:05.732Z,10.69
2024-05-09T08:09:39.732Z,10.41
2024-05-09T08:12:16.436Z,10.02
2024-05-09T08:14:48.462Z,10.79
2024-05-09T08:17:20.625Z,10.92
2024-05-09T08:19:56.363Z,10.70
2024-05-09T08:22:32.606Z,10.77
2024-05-09T08:25:05.516Z,10.24
2024-05-09T08:27:37.921Z,10.54
2024-05-09T08:30:21.334Z,10.63
2024-05-09T08:32:58.227Z,10.23
2024-05-09T08:35:30.864Z,10.35
2024-05-09T08:38:07.807Z,10.22
2024-05-09T08:40:39.775Z,9.49
2024-05-09T08:43:14.776Z,10.01
2024-05-09T08:45:52.503Z,10.19
2024-05-09T08:48:29.203Z,9.82
2024-05-09T08:51:02.344Z,9.60
2024-05-09T08:53:35.471Z,9.98
2024-05-09T08:56:08.018Z,9.85
2024-05-09T08:58:40.238Z,9.89
2024-05-09T09:01:13.823Z,10.06
2024-05-09T09:03:48.766Z,9.14
2024-05-09T09:06:25.416Z,9.22
2024-05-09T09:08:58.582Z,9.87
2024-05-09T09:11:30.959Z,9.84
2024-05-09T09:14:03.837Z,9.55
2024-05-09T09:16:37.417Z,9.34
2024-05-09T09:19:09.918Z,9.26
2024-05-09T09:21:54.556Z,9.10
2024-05-09T09:24:28.907Z,9.51
2024-05-09T09:27:06.314Z,8.61
2024-05-09T09:29:44.673Z,8.47
2024-05-09T09:32:18.407Z,9.27
2024-05-09T09:34:53.699Z,9.03
2024-05-09T09:37:32.355Z,8.67
2024-05-09T09:40:08.955Z,9.17
2024-05-09T09:42:55.489Z,8.96
2024-05-09T09:45:29.764Z,8.75
2024-05-09T09:48:03.672Z,10.08
2024-05-09T09:50:39.019Z,10.65
2024-05-09T09:53:13.306Z,10.34
2024-05-09T09:55:47.774Z,10.01
2024-05-09T09:58:20.461Z,9.41
2024-05-09T10:00:55.693Z,9.56
2024-05-09T10:03:29.198Z,10.21
2024-05-09T10:06:03.240Z,10.84
2024-05-09T10:08:37.865Z,10.81
2024-05-09T10:11:11.074Z,11.97
2024-05-09T10:13:47.134Z,12.17
2024-05-09T10:16:24.143Z,11.55
2024-05-09T10:18:56.746Z,11.30
2024-05-09T10:21:29.202Z,11.11
2024-05-09T10:24:04.511Z,11.37
2024-05-09T10:26:38.844Z,11.49
2024-05-09T10:29:19.061Z,12.60
2024-05-09T10:31:52.182Z,13.56
2024-05-09T10:34:26.138Z,12.72
2024-05-09T10:37:05.059Z,12.67
2024-05-09T10:39:39.636Z,12.93
2024-05-09T10:42:15.645Z,12.53
2024-05-09T10:44:48.931Z,12.75
2024-05-09T10:47:23.686Z,14.06
2024-05-09T10:49:58.665Z,14.57
2024-05-09T10:52:32.096Z,15.76
2024-05-09T10:55:06.717Z,17.22
2024-05-09T10:57:43.479Z,17.27
2024-05-09T11:00:26.995Z,17.31
2024-05-09T11:03:06.802Z,18.00
2024-05-09T11:05:43.940Z,18.57
2024-05-09T11:08:17.358Z,19.25
2024-05-09T11:10:50.759Z,20.36
2024-05-09T11:13:33.729Z,20.48
2024-05-09T11:16:08.082Z,20.74
2024-05-09T11:18:45.409Z,20.24
2024-05-09T11:21:18.731Z,20.62
2024-05-09T11:23:50.813Z,20.78
2024-05-09T11:26:25.483Z,21.43
2024-05-09T11:28:57.902Z,22.69
2024-05-09T11:31:30.140Z,21.60
2024-05-09T11:34:05.310Z,21.73
2024-05-09T11:36:40.518Z,21.74
2024-05-09T11:39:16.540Z,21.91
2024-05-09T11:41:48.928Z,21.69
2024-05-09T11:44:21.047Z,23.04
2024-05-09T11:46:54.475Z,23.18
2024-05-09T11:49:27.948Z,21.92
2024-05-09T11:52:00.756Z,21.81
2024-05-09T11:54:38.905Z,21.64
2024-05-09T11:57:11.745Z,21.65
2024-05-09T11:59:48.042Z,21.83
2024-05-09T12:02:20.854Z,23.05
2024-05-09T12:04:55.605Z,22.35
2024-05-09T12:07:30.229Z,22.65
2024-05-09T12:10:06.193Z,22.21
2024-05-09T12:12:40.604Z,22.24
2024-05-09T12:15:15.981Z,22.81
2024-05-09T12:17:50.916Z,23.43
2024-05-09T12:20:33.060Z,23.45
2024-05-09T12:23:10.769Z,23.54
2024-05-09T12:25:49.008Z,23.87
2024-05-09T12:28:22.399Z,23.79
2024-05-09T12:30:58.431Z,23.90
2024-05-09T12:33:31.017Z,24.84
2024-05-09T12:36:07.313Z,24.40
2024-05-09T12:38:39.091Z,24.37
2024-05-09T12:41:12.362Z,24.64
2024-05-09T12:43:45.255Z,24.41
2024-05-09T12:46:20.477Z,24.50
2024-05-09T12:48:57.002Z,24.81
2024-05-09T12:51:31.378Z,25.11
2024-05-09T12:54:15.121Z,25.13
2024-05-09T12:56:48.314Z,25.23
2024-05-09T12:59:20.547Z,25.76
2024-05-09T13:02:01.032Z,25.80
2024-05-09T13:04:35.490Z,26.04
2024-05-09T13:07:08.727Z,26.62
2024-05-09T13:09:40.884Z,26.09
2024-05-09T13:12:14.970Z,25.98
2024-05-09T13:14:47.789Z,25.64
2024-05-09T13:17:20.334Z,25.30
2024-05-09T13:19:56.433Z,25.23
2024-05-09T13:22:29.262Z,25.36
2024-05-09T13:25:03.477Z,26.00
2024-05-09T13:27:36.655Z,25.61
2024-05-09T13:30:17.631Z,25.46
2024-05-09T13:32:55.370Z,25.75
2024-05-09T13:35:28.442Z,25.70
2024-05-09T13:38:03.900Z,25.80
2024-05-09T13:40:36.937Z,26.07
2024-05-09T13:43:09.831Z,26.11
2024-05-09T13:45:43.298Z,26.24
2024-05-09T13:48:16.663Z,26.47
2024-05-09T13:50:48.894Z,26.44
2024-05-09T13:53:20.948Z,26.25
2024-05-09T13:55:54.399Z,26.93
2024-05-09T13:58:27.142Z,26.24
2024-05-09T14:00:59.326Z,25.67
2024-05-09T14:03:34.048Z,25.59
2024-05-09T14:06:12.766Z,25.38
2024-05-09T14:08:46.224Z,25.02
2024-05-09T14:11:18.458Z,25.33
2024-05-09T14:13:50.526Z,25.42
2024-05-09T14:16:26.642Z,25.70
2024-05-09T14:18:59.250Z,26.17
2024-05-09T14:21:32.381Z,26.51
2024-05-09T14:24:05.286Z,26.48
2024-05-09T14:26:37.668Z,26.75
2024-05-09T14:29:09.972Z,26.80
2024-05-09T14:31:43.597Z,26.40
2024-05-09T14:34:16.617Z,26.44
2024-05-09T14:36:49.356Z,26.07
2024-05-09T14:39:22.187Z,25.81
2024-05-09T14:41:56.783Z,25.49
2024-05-09T14:44:29.143Z,25.53
2024-05-09T14:47:03.874Z,25.25
2024-05-09T14:49:36.405Z,25.19
2024-05-09T14:52:09.533Z,25.37
2024-05-09T14:54:42.399Z,25.60
2024-05-09T14:57:15.297Z,25.33
2024-05-09T14:59:49.137Z,25.61
2024-05-09T15:02:21.802Z,25.38
2024-05-09T15:04:54.907Z,25.08
2024-05-09T15:07:30.356Z,25.18
2024-05-09T15:10:11.598Z,25.05
2024-05-09T15:12:48.990Z,24.98
2024-05-09T15:15:25.291Z,25.33
2024-05-09T15:18:00.767Z,25.49
2024-05-09T15:20:36.691Z,25.90
2024-05-09T15:23:09.607Z,25.61
2024-05-09T15:25:42.494Z,25.79
2024-05-09T15:28:15.027Z,25.71
2024-05-09T15:30:47.920Z,25.78
2024-05-09T15:33:20.342Z,26.15
2024-05-09T15:35:55.075Z,26.69
2024-05-09T15:38:28.326Z,26.58
2024-05-09T15:41:00.909Z,26.62
2024-05-09T15:43:33.991Z,26.45
2024-05-09T15:46:07.133Z,26.10
2024-05-09T15:48:41.891Z,26.52
2024-05-09T15:51:16.777Z,26.00
2024-05-09T15:53:49.113Z,25.92
2024-05-09T15:56:23.504Z,25.97
2024-05-09T15:58:56.363Z,25.96
2024-05-09T16:01:29.376Z,25.85
2024-05-09T16:04:04.062Z,26.03
2024-05-09T16:06:37.483Z,25.80
2024-05-09T16:09:09.987Z,25.68
2024-05-09T16:11:43.584Z,25.57
2024-05-09T16:14:16.869Z,25.43
2024-05-09T16:16:49.358Z,25.36
2024-05-09T16:19:22.369Z,25.42
2024-05-09T16:21:55.102Z,25.23
2024-05-09T16:24:27.742Z,25.34
2024-05-09T16:26:59.786Z,25.33
2024-05-09T16:29:32.363Z,25.49
2024-05-09T16:32:05.424Z,25.34
2024-05-09T16:34:37.855Z,25.52
2024-05-09T16:37:15.450Z,25.73
2024-05-09T16:39:48.674Z,26.59
2024-05-09T16:42:20.846Z,26.28
2024-05-09T16:44:56.829Z,26.55
2024-05-09T16:47:29.254Z,26.68
2024-05-09T16:50:05.024Z,26.98
2024-05-09T16:52:38.164Z,27.11
2024-05-09T16:55:10.858Z,27.27
2024-05-09T16:57:44.364Z,27.51
2024-05-09T17:00:25.950Z,27.59
2024-05-09T17:03:09.787Z,27.86
2024-05-09T17:05:43.839Z,27.97
2024-05-09T17:08:19.863Z,28.06
2024-05-09T17:10:55.400Z,28.07
2024-05-09T17:13:28.231Z,28.13
2024-05-09T17:16:01.137Z,27.88
2024-05-09T17:18:36.547Z,28.09
2024-05-09T17:21:09.381Z,28.22
2024-05-09T17:23:44.322Z,28.15
2024-05-09T17:26:16.544Z,28.69
2024-05-09T17:28:48.926Z,28.82
2024-05-09T17:31:22.690Z,28.53
2024-05-09T17:33:56.070Z,28.55
2024-05-09T17:36:28.581Z,28.65
2024-05-09T17:39:02.350Z,28.64
2024-05-09T17:41:34.952Z,29.30
2024-05-09T17:44:10.274Z,29.09
2024-05-09T17:46:46.346Z,29.14
2024-05-09T17:49:19.411Z,29.28
2024-05-09T17:51:55.740Z,29.38
2024-05-09T17:54:27.964Z,29.55
2024-05-09T17:57:00.445Z,29.97
2024-05-09T17:59:35.491Z,30.21
2024-05-09T18:02:12.305Z,30.15
2024-05-09T18:04:45.536Z,30.38
2024-05-09T18:07:17.937Z,30.68
2024-05-09T18:09:50.518Z,30.70
2024-05-09T18:12:25.887Z,31.32
2024-05-09T18:14:57.920Z,31.28
2024-05-09T18:17:30.707Z,31.21
2024-05-09T18:20:08.975Z,31.43
2024-05-09T18:22:42.316Z,31.74
2024-05-09T18:25:15.005Z,32.22
2024-05-09T18:27:50.812Z,32.68
2024-05-09T18:30:31.591Z,34.01
2024-05-09T18:33:08.489Z,33.59
2024-05-09T18:35:40.011Z,35.55
2024-05-09T18:38:15.505Z,38.06
2024-05-09T18:40:49.383Z,35.06
2024-05-09T18:43:31.128Z,36.07
2024-05-09T18:46:08.743Z,37.91
2024-05-09T18:48:41.217Z,38.46
2024-05-09T18:51:16.462Z,38.50
2024-05-09T18:53:48.967Z,39.27
2024-05-09T18:56:22.096Z,40.58
2024-05-09T18:58:54.830Z,37.35
2024-05-09T19:01:29.326Z,38.87
2024-05-09T19:04:04.978Z,40.54
2024-05-09T19:06:39.162Z,41.13
2024-05-09T19:09:11.716Z,40.93
2024-05-09T19:11:45.389Z,41.77
2024-05-09T19:14:17.717Z,40.60
2024-05-09T19:16:49.685Z,39.00
2024-05-09T19:19:22.543Z,39.86
2024-05-09T19:21:58.091Z,42.56
2024-05-09T19:24:30.744Z,42.26
2024-05-09T19:27:05.667Z,42.87
2024-05-09T19:29:37.780Z,42.72
2024-05-09T19:32:15.096Z,42.85
2024-05-09T19:34:47.865Z,42.13
2024-05-09T19:37:20.238Z,40.18
2024-05-09T19:39:53.670Z,42.87
2024-05-09T19:42:32.115Z,43.17
2024-05-09T19:45:05.287Z,42.75
2024-05-09T19:47:37.761Z,43.36
2024-05-09T19:50:14.141Z,42.77
2024-05-09T19:52:52.420Z,44.49
2024-05-09T19:55:25.339Z,44.47
2024-05-09T19:57:59.892Z,43.91
2024-05-09T20:00:36.737Z,43.55
2024-05-09T20:03:12.857Z,44.56
2024-05-09T20:05:49.537Z,44.98
2024-05-09T20:08:24.504Z,45.68
2024-05-09T20:10:55.299Z,44.76
2024-05-09T20:13:28.951Z,44.82
2024-05-09T20:16:03.278Z,44.26
2024-05-09T20:18:39.059Z,44.99
2024-05-09T20:21:12.480Z,44.57
2024-05-09T20:23:45.062Z,44.72
2024-05-09T20:26:17.901Z,45.38
2024-05-09T20:28:50.439Z,46.10
2024-05-09T20:31:26.359Z,46.17
2024-05-09T20:33:59.472Z,45.37
2024-05-09T20:36:32.489Z,46.01
2024-05-09T20:39:04.805Z,45.86
2024-05-09T20:41:45.553Z,46.01
2024-05-09T20:44:18.812Z,45.79
2024-05-09T20:46:50.857Z,45.77
2024-05-09T20:49:24.593Z,45.26
2024-05-09T20:51:57.832Z,46.86
2024-05-09T20:54:30.552Z,46.08
2024-05-09T20:57:04.296Z,44.89
2024-05-09T20:59:38.225Z,45.63
2024-05-09T21:02:10.847Z,45.13
2024-05-09T21:04:43.952Z,44.85
2024-05-09T21:07:17.034Z,44.81
2024-05-09T21:09:49.533Z,46.17
2024-05-09T21:12:22.612Z,47.45
2024-05-09T21:14:54.874Z,46.96
2024-05-09T21:17:27.928Z,46.37
2024-05-09T21:20:00.258Z,45.65
2024-05-09T21:22:34.725Z,45.80
2024-05-09T21:25:08.248Z,45.61
2024-05-09T21:27:40.559Z,45.76
2024-05-09T21:30:22.268Z,45.74
2024-05-09T21:33:00.943Z,45.47
2024-05-09T21:35:33.522Z,45.90
2024-05-09T21:38:07.251Z,46.06
2024-05-09T21:40:39.492Z,46.35
2024-05-09T21:43:12.635Z,47.79
2024-05-09T21:45:46.031Z,47.86
2024-05-09T21:48:18.651Z,47.64
2024-05-09T21:50:51.153Z,47.16
2024-05-09T21:53:26.653Z,47.70
2024-05-09T21:55:59.122Z,47.60
2024-05-09T21:58:32.118Z,46.80
2024-05-09T22:01:05.840Z,47.85
2024-05-09T22:03:39.373Z,48.67
2024-05-09T22:06:14.568Z,49.78
2024-05-09T22:08:46.848Z,49.99
2024-05-09T22:11:19.340Z,49.12
2024-05-09T22:13:52.292Z,48.89
2024-05-09T22:16:25.215Z,49.46
2024-05-09T22:19:01.095Z,48.99
2024-05-09T22:21:36.938Z,49.90
2024-05-09T22:24:09.637Z,50.40
2024-05-09T22:26:42.700Z,50.60
2024-05-09T22:29:15.312Z,51.08
2024-05-09T22:31:48.018Z,51.32
2024-05-09T22:34:20.042Z,51.19
2024-05-09T22:36:53.869Z,51.14
2024-05-09T22:39:26.459Z,51.69
2024-05-09T22:41:59.079Z,50.67
2024-05-09T22:44:34.556Z,50.64
2024-05-09T22:47:07.691Z,51.58
2024-05-09T22:49:39.675Z,50.49
2024-05-09T22:52:12.579Z,51.31
2024-05-09T22:54:45.013Z,50.89
2024-05-09T22:57:17.881Z,51.13
2024-05-09T22:59:50.442Z,50.19
2024-05-09T23:02:25.660Z,52.09
2024-05-09T23:04:57.794Z,51.71
2024-05-09T23:07:33.755Z,52.50
2024-05-09T23:10:13.201Z,52.15
2024-05-09T23:12:49.468Z,52.55
2024-05-09T23:15:22.290Z,52.70
2024-05-09T23:17:55.276Z,53.03
2024-05-09T23:20:35.435Z,53.29
2024-05-09T23:23:12.007Z,54.03
2024-05-09T23:25:45.005Z,53.34
2024-05-09T23:28:18.766Z,52.10
2024-05-09T23:30:51.092Z,51.74
2024-05-09T23:33:24.938Z,52.07
2024-05-09T23:35:57.873Z,52.45
2024-05-09T23:38:32.487Z,53.30
2024-05-09T23:41:07.402Z,53.06
2024-05-09T23:43:39.394Z,53.86
2024-05-09T23:46:14.484Z,54.91
2024-05-09T23:48:47.700Z,53.73
2024-05-09T23:51:19.639Z,54.22
2024-05-09T23:53:52.518Z,54.80
2024-05-09T23:56:25.313Z,53.06
2024-05-09T23:58:58.939Z,54.31
